Flight Track Log - Related Links

Times and Time Zones

All times are in EDT time to prevent confusion due to time zone crossing. See the AAL2222 flight status page for this flight to view local times or setup timezone preferences in your user account.

Time Position Orientation Groundspeed Altitude Reporting Facility
EDT Latitude Longitude Course Direction KTS MPH feet Rate Location/Type
Mon 02:17:35 PM 44.8833 -93.2833 200° South 200 230 2,900  Level Minneapolis TRACON
Mon 02:17:50 PM 44.8853 -93.3019 278° West 204 235 3,100 2,935 Climbing Minneapolis Center
Mon 02:19:00 PM 44.5685 -93.3409 200° South  Level Estimated
Mon 02:19:00 PM 44.7599 -93.3487 200° South  Level Estimated
Mon 02:19:54 PM 44.7597 -93.4175 200° South 277 319 9,700  Level Minneapolis Center
Mon 02:20:00 PM 44.4639 -93.3804 196° South  Level Estimated
Mon 02:21:00 PM 44.3660 -93.4451 205° Southwest  Level FlightAware Approximate
Mon 02:21:00 PM 44.6414 -93.4606 200° South  Level Estimated
Mon 02:22:00 PM 44.2614 -93.4840 200° South  Level Estimated
Mon 02:23:00 PM 44.1631 -93.5601 200° South  Level FlightAware Approximate
Mon 02:24:14 PM 44.3647 -93.6714 186° South 384 442 20,300  Level Minneapolis Center
Mon 02:25:28 PM 44.2686 -93.7494 210° Southwest 399 459 22,300 2,029 Climbing Minneapolis Center
Mon 02:26:30 PM 44.1500 -93.8439 210° Southwest 409 471 24,900 2,064 Climbing Minneapolis Center
Mon 02:27:33 PM 44.0492 -93.9253 210° Southwest 418 481 26,600 1,728 Climbing Minneapolis Center
Mon 02:28:00 PM 43.8879 -93.7312 200° South  Level Estimated
Mon 02:28:35 PM 43.9475 -94.0067 210° Southwest 424 488 28,500  Level Minneapolis Center
Mon 02:29:00 PM 43.7772 -93.7463 186° South  Level FlightAware Approximate
Mon 02:30:00 PM 43.7941 -94.0561 193° South  Level Estimated
Mon 02:30:39 PM 43.7269 -94.1817 193° South 416 479 32,000  Level Minneapolis Center
Mon 02:32:00 PM 43.5756 -94.2100 188° South  Level FlightAware Approximate
Mon 02:32:43 PM 43.5192 -94.2350 188° South 405 466 34,200  Level Minneapolis Center
Mon 02:33:45 PM 43.3878 -94.2428 182° South 400 460 35,300 823 Climbing Minneapolis Center
Mon 02:34:47 PM 43.2850 -94.2506 183° South 399 459 35,900 339 Climbing Minneapolis Center
Mon 02:35:49 PM 43.1508 -94.2592 183° South 401 461 36,000 48 Climbing Minneapolis Center
Mon 02:36:51 PM 43.0392 -94.2678 183° South 402 463 36,000  Level Minneapolis Center
Mon 02:37:53 PM 42.9228 -94.2756 183° South 403 464 36,000  Level Minneapolis Center
Mon 02:38:55 PM 42.8125 -94.2836 183° South 402 463 36,000  Level Minneapolis Center
Mon 02:39:57 PM 42.7017 -94.2894 182° South 403 464 36,000  Level Minneapolis Center
Mon 02:41:00 PM 42.5868 -94.3309 195° South  Level FlightAware Approximate
Mon 02:42:01 PM 42.4828 -94.3297 195° South 405 466 36,000  Level Minneapolis Center
Mon 02:44:27 PM 42.1994 -94.3939 190° South 407 468 36,000  Level Kansas City Center
Mon 02:45:07 PM 42.1186 -94.4164 192° South 409 471 36,000  Level Minneapolis Center
Mon 02:46:09 PM 42.0050 -94.4439 190° South 412 474 36,000  Level Minneapolis Center
Mon 02:47:12 PM 41.8922 -94.4708 190° South 410 472 36,000  Level Minneapolis Center
Mon 02:48:14 PM 41.7783 -94.4992 191° South 413 475 36,000  Level Minneapolis Center
Mon 02:49:16 PM 41.6636 -94.5261 190° South 415 478 36,000  Level Minneapolis Center
Mon 02:50:18 PM 41.5503 -94.5528 190° South 413 475 36,000  Level Minneapolis Center
Mon 02:51:20 PM 41.4128 -94.5878 191° South 415 478 36,000  Level Minneapolis Center
Mon 02:52:22 PM 41.3000 -94.6133 190° South 413 475 36,000  Level Minneapolis Center
Mon 02:53:24 PM 41.1839 -94.6408 190° South 416 479 36,000  Level Minneapolis Center
Mon 02:54:26 PM 41.0661 -94.6692 190° South 423 487 36,000  Level Minneapolis Center
Mon 02:56:00 PM 40.9325 -94.7129 194° South  Level FlightAware Approximate
Mon 02:56:30 PM 40.8281 -94.7258 194° South 431 496 36,000  Level Minneapolis Center
Mon 02:57:32 PM 40.7097 -94.7528 190° South 431 496 36,000  Level Minneapolis Center
Mon 02:58:34 PM 40.5672 -94.7869 190° South 431 496 36,000  Level Minneapolis Center
Mon 02:59:35 PM 40.4475 -94.8142 190° South 435 501 36,000  Level Minneapolis Center
Mon 03:00:39 PM 40.3281 -94.8425 190° South 434 499 36,000  Level Minneapolis Center
Mon 03:01:41 PM 40.2089 -94.8694 190° South 433 498 36,000  Level Minneapolis Center
Mon 03:02:42 PM 40.1139 -94.8906 190° South 433 498 36,000  Level Minneapolis Center
Mon 03:03:44 PM 39.9700 -94.9250 190° South 435 501 36,000  Level Minneapolis Center
Mon 03:04:46 PM 39.8247 -94.9600 190° South 440 506 36,000  Level Minneapolis Center
Mon 03:05:06 PM 39.7919 -94.9661 188° South 444 511 36,000  Level Kansas City Center
Mon 03:06:08 PM 39.6753 -94.9939 190° South 445 512 36,000  Level Kansas City Center
Mon 03:07:10 PM 39.5383 -95.0264 190° South 446 513 36,000  Level Kansas City Center
Mon 03:08:12 PM 39.4214 -95.0553 191° South 444 511 36,000  Level Kansas City Center
Mon 03:09:14 PM 39.2822 -95.0869 190° South 448 516 36,000  Level Kansas City Center
Mon 03:10:16 PM 39.1606 -95.1158 190° South 452 520 36,000  Level Kansas City Center
Mon 03:11:18 PM 39.0247 -95.1486 191° South 451 519 36,000  Level Kansas City Center
Mon 03:13:22 PM 38.7808 -95.2056 190° South 456 525 36,000  Level Kansas City Center
Mon 03:14:24 PM 38.6403 -95.2386 190° South 459 528 36,000  Level Kansas City Center
Mon 03:15:26 PM 38.5206 -95.2667 190° South 456 525 36,000  Level Kansas City Center
Mon 03:17:00 PM 38.3471 -95.3042 190° South  Level FlightAware Approximate
Mon 03:17:30 PM 38.2628 -95.3242 190° South 453 521 36,000  Level Kansas City Center
Mon 03:18:32 PM 38.1428 -95.3544 191° South 457 526 36,000  Level Kansas City Center
Mon 03:19:34 PM 38.0031 -95.3864 190° South 457 526 36,000  Level Kansas City Center
Mon 03:21:00 PM 37.8444 -95.4159 188° South  Level FlightAware Approximate
Mon 03:22:40 PM 37.6111 -95.4761 206° Southwest 452 520 36,000  Level Kansas City Center
Mon 03:23:42 PM 37.5047 -95.5464 208° Southwest 438 504 36,000  Level Kansas City Center
Mon 03:24:44 PM 37.3972 -95.6144 207° Southwest 436 502 36,000  Level Kansas City Center
Mon 03:25:46 PM 37.2894 -95.6844 206° Southwest 435 501 36,000  Level Kansas City Center
Mon 03:26:00 PM 37.2792 -95.7165 206° Southwest  Level FlightAware Approximate
Mon 03:27:50 PM 37.0711 -95.8183 206° Southwest 438 504 36,000  Level Kansas City Center
Mon 03:28:00 PM 37.1297 -95.8079 206° Southwest  Level FlightAware Approximate
Mon 03:29:54 PM 36.8336 -95.9658 206° Southwest 434 499 36,000  Level Kansas City Center
Mon 03:31:00 PM 36.7234 -96.0343 206° Southwest  Level FlightAware Approximate
Mon 03:33:00 PM 36.5746 -96.1439 206° Southwest  Level FlightAware Approximate
Mon 03:33:00 PM 36.5648 -96.1349 207° Southwest  Level FlightAware Approximate
Mon 03:34:03 PM 36.3842 -96.2392 207° Southwest 429 494 36,000  Level Kansas City Center
Mon 03:35:05 PM 36.2778 -96.3025 206° Southwest 426 490 36,000  Level Kansas City Center
Mon 03:36:07 PM 36.1722 -96.3669 206° Southwest 425 489 36,000  Level Kansas City Center
Mon 03:38:11 PM 35.9472 -96.5022 206° Southwest 425 489 36,000  Level Kansas City Center
Mon 03:39:13 PM 35.8400 -96.5661 206° Southwest 426 490 36,000  Level Kansas City Center
Mon 03:41:16 PM 35.6272 -96.6933 206° Southwest 426 490 36,000  Level Fort Worth Center
Mon 03:42:16 PM 35.5131 -96.7608 206° Southwest 426 490 36,000  Level Fort Worth Center
Mon 03:43:16 PM 35.4069 -96.8228 205° Southwest 421 484 36,000  Level Fort Worth Center
Mon 03:45:15 PM 35.1969 -96.9461 206° Southwest 421 484 36,000  Level Fort Worth Center
Mon 03:46:15 PM 35.0947 -97.0100 207° Southwest 421 484 36,000 -99 Level Fort Worth Center
Mon 03:47:16 PM 34.9886 -97.0714 205° Southwest 421 484 35,800 -1,269 Descending Fort Worth Center
Mon 03:49:00 PM 34.8319 -97.1496 206° Southwest  Level FlightAware Approximate
Mon 03:50:35 PM 34.6553 -97.2642 201° Southwest 422 486 30,500  Level Kansas City Center
Mon 03:51:16 PM 34.5636 -97.3203 207° Southwest 426 490 28,800 -2,340 Descending Fort Worth Center
Mon 03:52:15 PM 34.4531 -97.3833 205° Southwest 432 497 26,600 -1,609 Descending Fort Worth Center
Mon 03:54:15 PM 34.2317 -97.5039 204° Southwest 442 509 24,000 -1,267 Descending Fort Worth Center
Mon 03:55:15 PM 34.1358 -97.5364 196° South 418 481 22,800 -1,190 Descending Fort Worth Center
Mon 03:56:00 PM 34.1176 -97.5329 201° Southwest  Level FlightAware Approximate
Mon 03:56:16 PM 34.0250 -97.5514 186° South 405 466 21,600  Level Fort Worth Center
Mon 03:57:16 PM 33.9103 -97.5661 186° South 386 444 19,500 -1,857 Descending Fort Worth Center
Mon 03:59:04 PM 33.7167 -97.5833 184° South 382 440 16,400 -1,709 Descending Dallas / Fort Worth TRACON
Mon 04:00:15 PM 33.6056 -97.6106 192° South 386 444 14,400 -1,832 Descending Fort Worth Center
Mon 04:01:15 PM 33.4969 -97.6278 188° South 372 428 12,400 -1,537 Descending Fort Worth Center
Mon 04:02:16 PM 33.4008 -97.6425 187° South 361 415 11,300 -694 Descending Fort Worth Center
Mon 04:03:16 PM 33.3258 -97.5775 144° Southeast 312 359 11,000 -100 Descending Fort Worth Center
Mon 04:05:16 PM 33.2050 -97.4358 136° Southeast 306 352 11,000  Level Fort Worth Center
Mon 04:06:15 PM 33.1422 -97.3639 136° Southeast 301 346 11,000  Level Fort Worth Center
Mon 04:07:16 PM 33.0817 -97.2969 137° Southeast 301 346 11,000  Level Fort Worth Center
Mon 04:08:16 PM 33.0294 -97.2325 134° Southeast 301 346 11,000 -600 Level Fort Worth Center
Mon 04:09:16 PM 32.9647 -97.1683 140° Southeast 282 325 9,800 -1,200 Descending Fort Worth Center
Mon 04:10:16 PM 32.9019 -97.1758 186° South 252 290 8,600 -1,267 Descending Fort Worth Center
Mon 04:12:16 PM 32.7642 -97.1714 178° South 252 290 6,000 -1,341 Descending Fort Worth Center
Mon 04:13:15 PM 32.6911 -97.1689 178° South 252 290 4,600 -913 Descending Fort Worth Center
Mon 04:14:34 PM 32.6667 -97.0833 109° East 217 250 3,900 -455 Descending Dallas / Fort Worth TRACON
Mon 04:15:40 PM 32.7333 -97.0500 23° Northeast 217 250 3,500 -806 Descending Dallas / Fort Worth TRACON
Mon 04:17:40 PM 32.8333 -97.0500 360° North 151 174 1,400 -1,050 Descending Dallas / Fort Worth TRACON

Login

Don't have an account? Register now (free) for customized features, flight alerts, and more!